createdAt,value
2018-08-12T00:00:18.475Z,5.03
2018-08-12T00:02:47.458Z,3.60
2018-08-12T00:05:16.110Z,3.87
2018-08-12T00:07:44.856Z,4.43
2018-08-12T00:10:13.727Z,3.97
2018-08-12T00:12:42.909Z,3.17
2018-08-12T00:15:13.796Z,3.50
2018-08-12T00:17:42.522Z,3.07
2018-08-12T00:20:14.982Z,3.57
2018-08-12T00:22:43.849Z,3.70
2018-08-12T00:25:15.106Z,4.07
2018-08-12T00:27:43.828Z,3.80
2018-08-12T00:30:13.945Z,3.70
2018-08-12T00:32:42.872Z,4.10
2018-08-12T00:35:13.066Z,3.80
2018-08-12T00:37:42.137Z,3.57
2018-08-12T00:40:13.018Z,3.83
2018-08-12T00:42:41.924Z,3.77
2018-08-12T00:45:15.821Z,3.57
2018-08-12T00:47:44.895Z,3.67
2018-08-12T00:50:14.413Z,3.90
2018-08-12T00:52:43.151Z,3.93
2018-08-12T00:55:13.769Z,3.53
2018-08-12T00:57:43.632Z,4.20
2018-08-12T01:00:14.673Z,3.47
2018-08-12T01:02:43.449Z,3.70
2018-08-12T01:05:13.818Z,3.93
2018-08-12T01:07:42.850Z,3.67
2018-08-12T01:10:12.146Z,3.53
2018-08-12T01:12:40.910Z,3.50
2018-08-12T01:15:32.352Z,3.90
2018-08-12T01:18:02.533Z,3.53
2018-08-12T01:20:31.233Z,3.73
2018-08-12T01:22:59.948Z,4.00
2018-08-12T01:25:28.640Z,3.80
2018-08-12T01:27:57.349Z,3.70
2018-08-12T01:30:26.095Z,4.07
2018-08-12T01:32:54.823Z,3.50
2018-08-12T01:35:23.479Z,3.53
2018-08-12T01:37:52.164Z,3.47
2018-08-12T01:40:20.817Z,3.60
2018-08-12T01:42:49.509Z,3.60
2018-08-12T01:45:19.640Z,3.27
2018-08-12T01:47:48.517Z,3.70
2018-08-12T01:50:18.605Z,3.57
2018-08-12T01:52:47.348Z,4.10
2018-08-12T01:55:16.270Z,3.83
2018-08-12T01:57:45.074Z,3.50
2018-08-12T02:00:16.186Z,3.97
2018-08-12T02:02:45.060Z,3.37
2018-08-12T02:05:13.846Z,4.33
2018-08-12T02:07:42.682Z,3.97
2018-08-12T02:10:11.478Z,4.10
2018-08-12T02:12:40.343Z,3.60
2018-08-12T02:15:10.329Z,3.90
2018-08-12T02:17:39.309Z,3.80
2018-08-12T02:20:08.797Z,3.77
2018-08-12T02:22:38.065Z,3.73
2018-08-12T02:25:07.152Z,3.80
2018-08-12T02:27:35.813Z,3.80
2018-08-12T02:30:05.228Z,3.43
2018-08-12T02:32:33.891Z,3.37
2018-08-12T02:35:02.689Z,3.90
2018-08-12T02:37:31.337Z,4.50
2018-08-12T02:40:00.540Z,3.17
2018-08-12T02:42:29.733Z,2.93
2018-08-12T02:44:59.233Z,3.57
2018-08-12T02:47:27.988Z,3.33
2018-08-12T02:49:56.641Z,3.77
2018-08-12T02:52:25.399Z,3.80
2018-08-12T02:54:54.118Z,4.13
2018-08-12T02:57:22.769Z,4.87
2018-08-12T02:59:51.438Z,4.80
2018-08-12T03:02:20.123Z,4.23
2018-08-12T03:04:48.826Z,4.57
2018-08-12T03:07:17.545Z,4.00
2018-08-12T03:09:46.224Z,4.00
2018-08-12T03:12:14.908Z,4.33
2018-08-12T03:14:43.613Z,3.63
2018-08-12T03:17:12.302Z,3.53
2018-08-12T03:19:40.989Z,3.77
2018-08-12T03:22:09.659Z,3.30
2018-08-12T03:24:38.649Z,3.67
2018-08-12T03:27:07.427Z,3.83
2018-08-12T03:29:36.114Z,3.60
2018-08-12T03:32:04.857Z,4.00
2018-08-12T03:34:33.484Z,3.53
2018-08-12T03:37:02.206Z,3.67
2018-08-12T03:39:30.868Z,4.00
2018-08-12T03:41:59.522Z,4.07
2018-08-12T03:44:28.162Z,3.77
2018-08-12T03:46:56.793Z,3.97
2018-08-12T03:49:25.628Z,3.80
2018-08-12T03:51:54.301Z,3.70
2018-08-12T03:54:22.958Z,3.63
2018-08-12T03:56:51.670Z,3.70
2018-08-12T03:59:20.357Z,3.37
2018-08-12T04:01:49.030Z,3.80
2018-08-12T04:04:17.680Z,3.83
2018-08-12T04:06:46.361Z,3.90
2018-08-12T04:09:15.070Z,3.63
2018-08-12T04:11:43.769Z,4.00
2018-08-12T04:14:12.920Z,3.67
2018-08-12T04:16:45.745Z,4.13
2018-08-12T04:19:14.446Z,3.53
2018-08-12T04:21:43.082Z,3.77
2018-08-12T04:24:11.799Z,3.53
2018-08-12T04:26:40.488Z,4.23
2018-08-12T04:29:09.137Z,4.07
2018-08-12T04:31:37.851Z,4.33
2018-08-12T04:34:06.566Z,3.97
2018-08-12T04:36:35.402Z,4.00
2018-08-12T04:39:05.720Z,3.83
2018-08-12T04:41:41.990Z,3.90
2018-08-12T04:44:10.641Z,3.73
2018-08-12T04:46:39.461Z,4.00
2018-08-12T04:49:09.220Z,3.80
2018-08-12T04:51:37.958Z,3.83
2018-08-12T04:54:07.003Z,4.03
2018-08-12T04:56:35.668Z,3.90
2018-08-12T04:59:04.894Z,3.93
2018-08-12T05:01:33.582Z,3.77
2018-08-12T05:04:02.267Z,3.20
2018-08-12T05:06:30.953Z,4.07
2018-08-12T05:08:59.633Z,3.50
2018-08-12T05:11:31.236Z,3.40
2018-08-12T05:13:59.895Z,4.60
2018-08-12T05:16:28.557Z,4.03
2018-08-12T05:18:57.241Z,3.80
2018-08-12T05:21:25.905Z,3.80
2018-08-12T05:23:54.545Z,3.70
2018-08-12T05:26:23.241Z,3.77
2018-08-12T05:28:51.887Z,3.43
2018-08-12T05:31:20.656Z,4.10
2018-08-12T05:33:49.285Z,3.90
2018-08-12T05:36:18.041Z,3.57
2018-08-12T05:38:46.697Z,3.47
2018-08-12T05:41:15.337Z,3.60
2018-08-12T05:43:44.032Z,3.90
2018-08-12T05:46:12.677Z,3.70
2018-08-12T05:48:41.359Z,3.87
2018-08-12T05:51:10.348Z,3.93
2018-08-12T05:53:38.937Z,3.53
2018-08-12T05:56:07.553Z,3.40
2018-08-12T05:58:36.300Z,3.87
2018-08-12T06:01:05.039Z,2.87
2018-08-12T06:03:33.877Z,3.90
2018-08-12T06:06:02.511Z,3.37
2018-08-12T06:08:31.156Z,3.17
2018-08-12T06:10:59.823Z,3.10
2018-08-12T06:13:28.504Z,3.40
2018-08-12T06:15:57.157Z,2.90
2018-08-12T06:18:25.770Z,3.03
2018-08-12T06:20:54.437Z,3.10
2018-08-12T06:23:23.132Z,2.70
2018-08-12T06:25:51.836Z,2.83
2018-08-12T06:28:21.037Z,2.60
2018-08-12T06:30:49.657Z,3.07
2018-08-12T06:33:18.349Z,3.00
2018-08-12T06:35:47.071Z,2.37
2018-08-12T06:38:15.733Z,2.73
2018-08-12T06:40:44.589Z,3.00
2018-08-12T06:43:13.335Z,2.40
2018-08-12T06:45:41.974Z,2.47
2018-08-12T06:48:10.725Z,2.67
2018-08-12T06:50:39.358Z,2.97
2018-08-12T06:53:08.039Z,2.33
2018-08-12T06:55:36.718Z,2.80
2018-08-12T06:58:05.509Z,2.47
2018-08-12T07:00:34.185Z,2.97
2018-08-12T07:03:03.171Z,2.87
2018-08-12T07:05:32.016Z,2.50
2018-08-12T07:08:00.748Z,2.37
2018-08-12T07:10:29.404Z,2.40
2018-08-12T07:12:58.063Z,2.77
2018-08-12T07:15:26.703Z,2.50
2018-08-12T07:17:55.404Z,2.53
2018-08-12T07:20:24.014Z,2.17
2018-08-12T07:22:52.750Z,2.37
2018-08-12T07:25:21.913Z,2.33
2018-08-12T07:27:50.554Z,2.70
2018-08-12T07:30:19.221Z,1.93
2018-08-12T07:32:47.859Z,1.97
2018-08-12T07:35:16.887Z,2.37
2018-08-12T07:37:45.590Z,2.40
2018-08-12T07:40:20.255Z,2.30
2018-08-12T07:42:50.088Z,2.63
2018-08-12T07:45:18.758Z,2.30
2018-08-12T07:47:47.491Z,2.93
2018-08-12T07:50:16.249Z,2.03
2018-08-12T07:52:45.652Z,1.93
2018-08-12T07:55:14.901Z,2.20
2018-08-12T07:57:44.325Z,2.07
2018-08-12T08:00:16.477Z,1.97
2018-08-12T08:02:45.233Z,2.10
2018-08-12T08:05:13.940Z,1.90
2018-08-12T08:07:42.755Z,2.33
2018-08-12T08:10:14.692Z,2.27
2018-08-12T08:12:43.482Z,1.63
2018-08-12T08:15:15.306Z,2.30
2018-08-12T08:17:44.097Z,3.87
2018-08-12T08:20:14.166Z,1.90
2018-08-12T08:22:43.337Z,2.73
2018-08-12T08:25:12.466Z,1.87
2018-08-12T08:27:41.305Z,2.13
2018-08-12T08:30:12.093Z,2.00
2018-08-12T08:32:40.880Z,2.00
2018-08-12T08:35:10.176Z,2.33
2018-08-12T08:37:38.827Z,1.73
2018-08-12T08:40:11.347Z,1.77
2018-08-12T08:42:40.123Z,3.37
2018-08-12T08:45:14.472Z,1.50
2018-08-12T08:47:44.324Z,2.43
2018-08-12T08:50:13.078Z,1.70
2018-08-12T08:52:41.726Z,1.37
2018-08-12T08:55:11.802Z,1.57
2018-08-12T08:57:40.495Z,2.03
2018-08-12T09:00:11.484Z,1.43
2018-08-12T09:02:40.689Z,2.10
2018-08-12T09:05:10.971Z,1.50
2018-08-12T09:07:40.138Z,1.70
2018-08-12T09:10:10.621Z,1.10
2018-08-12T09:12:39.520Z,1.20
2018-08-12T09:15:10.308Z,1.80
2018-08-12T09:17:39.479Z,1.57
2018-08-12T09:20:10.515Z,1.30
2018-08-12T09:22:39.281Z,1.40
2018-08-12T09:25:09.065Z,1.70
2018-08-12T09:27:38.188Z,1.37
2018-08-12T09:30:11.586Z,1.33
2018-08-12T09:32:40.518Z,1.50
2018-08-12T09:35:09.229Z,1.10
2018-08-12T09:37:38.194Z,1.60
2018-08-12T09:40:10.265Z,1.37
2018-08-12T09:42:38.989Z,1.37
2018-08-12T09:45:09.448Z,1.33
2018-08-12T09:47:38.471Z,1.43
2018-08-12T09:50:07.996Z,1.63
2018-08-12T09:52:37.118Z,1.40
2018-08-12T09:55:06.101Z,1.40
2018-08-12T09:57:35.116Z,1.93
2018-08-12T10:00:05.242Z,2.23
2018-08-12T10:02:33.886Z,1.70
2018-08-12T10:05:02.612Z,1.53
2018-08-12T10:07:31.271Z,1.30
2018-08-12T10:09:59.969Z,1.80
2018-08-12T10:12:28.652Z,1.47
2018-08-12T10:14:57.325Z,1.20
2018-08-12T10:17:26.022Z,1.63
2018-08-12T10:19:54.748Z,1.93
2018-08-12T10:22:23.489Z,1.63
2018-08-12T10:24:52.377Z,1.40
2018-08-12T10:27:21.034Z,1.30
2018-08-12T10:29:49.713Z,1.40
2018-08-12T10:32:18.388Z,1.53
2018-08-12T10:34:47.767Z,1.37
2018-08-12T10:37:16.430Z,1.13
2018-08-12T10:39:45.096Z,1.50
2018-08-12T10:42:13.781Z,1.50
2018-08-12T10:44:42.578Z,1.40
2018-08-12T10:47:11.288Z,1.50
2018-08-12T10:49:39.981Z,1.10
2018-08-12T10:52:08.752Z,1.10
2018-08-12T10:54:37.449Z,1.20
2018-08-12T10:57:06.245Z,1.70
2018-08-12T10:59:35.050Z,1.27
2018-08-12T11:02:03.951Z,1.60
2018-08-12T11:04:32.701Z,1.50
2018-08-12T11:07:01.634Z,1.30
2018-08-12T11:09:30.333Z,1.37
2018-08-12T11:11:59.032Z,1.47
2018-08-12T11:14:27.695Z,0.93
2018-08-12T11:16:56.333Z,1.50
2018-08-12T11:19:25.165Z,1.30
2018-08-12T11:21:53.842Z,1.50
2018-08-12T11:24:22.520Z,1.40
2018-08-12T11:26:51.190Z,1.20
2018-08-12T11:29:19.837Z,1.40
2018-08-12T11:31:48.465Z,1.30
2018-08-12T11:34:17.201Z,1.30
2018-08-12T11:36:45.944Z,1.40
2018-08-12T11:39:14.586Z,1.40
2018-08-12T11:41:43.352Z,1.20
2018-08-12T11:44:12.014Z,1.60
2018-08-12T11:46:40.669Z,1.30
2018-08-12T11:49:09.330Z,1.20
2018-08-12T11:51:38.029Z,1.43
2018-08-12T11:54:06.686Z,1.30
2018-08-12T11:56:35.430Z,1.50
2018-08-12T11:59:04.811Z,1.10
2018-08-12T12:01:33.478Z,1.47
2018-08-12T12:04:02.343Z,1.30
2018-08-12T12:06:31.037Z,1.40
2018-08-12T12:08:59.704Z,1.07
2018-08-12T12:11:28.405Z,1.20
2018-08-12T12:13:57.030Z,1.43
2018-08-12T12:16:25.686Z,2.03
2018-08-12T12:18:54.421Z,1.50
2018-08-12T12:21:23.110Z,1.63
2018-08-12T12:23:51.728Z,1.30
2018-08-12T12:26:20.449Z,1.23
2018-08-12T12:28:49.084Z,1.20
2018-08-12T12:31:17.723Z,0.87
2018-08-12T12:33:46.395Z,1.27
2018-08-12T12:36:15.050Z,1.13
2018-08-12T12:38:44.116Z,2.03
2018-08-12T12:41:12.885Z,1.30
2018-08-12T12:43:41.587Z,1.20
2018-08-12T12:46:10.285Z,1.10
2018-08-12T12:48:38.974Z,1.10
2018-08-12T12:51:07.737Z,1.17
2018-08-12T12:53:36.363Z,1.37
2018-08-12T12:56:05.102Z,1.33
2018-08-12T12:58:33.833Z,0.90
2018-08-12T13:01:02.536Z,1.50
2018-08-12T13:03:31.231Z,0.93
2018-08-12T13:05:59.909Z,1.20
2018-08-12T13:08:28.566Z,1.20
2018-08-12T13:10:57.451Z,1.13
2018-08-12T13:13:26.130Z,1.13
2018-08-12T13:15:54.817Z,1.43
2018-08-12T13:18:23.490Z,1.00
2018-08-12T13:20:52.173Z,0.90
2018-08-12T13:23:20.868Z,1.17
2018-08-12T13:25:49.518Z,1.13
2018-08-12T13:28:18.180Z,1.20
2018-08-12T13:30:46.856Z,1.30
2018-08-12T13:33:16.156Z,0.90
2018-08-12T13:35:44.801Z,1.23
2018-08-12T13:38:13.700Z,1.43
2018-08-12T13:40:42.396Z,1.10
2018-08-12T13:43:11.094Z,1.30
2018-08-12T13:45:39.774Z,1.07
2018-08-12T13:48:08.541Z,1.37
2018-08-12T13:50:37.296Z,1.10
2018-08-12T13:53:05.998Z,1.00
2018-08-12T13:55:34.673Z,1.07
2018-08-12T13:58:03.391Z,1.17
2018-08-12T14:00:32.129Z,1.30
2018-08-12T14:03:00.869Z,1.30
2018-08-12T14:05:29.581Z,2.00
2018-08-12T14:07:58.238Z,1.50
2018-08-12T14:10:26.909Z,1.20
2018-08-12T14:12:55.587Z,1.23
2018-08-12T14:15:24.236Z,0.83
2018-08-12T14:17:52.929Z,1.30
2018-08-12T14:20:22.152Z,1.50
2018-08-12T14:22:51.091Z,1.30
2018-08-12T14:25:19.725Z,1.27
2018-08-12T14:27:48.394Z,1.50
2018-08-12T14:30:19.209Z,1.10
2018-08-12T14:32:48.444Z,1.20
2018-08-12T14:35:17.176Z,1.10
2018-08-12T14:37:45.916Z,1.00
2018-08-12T14:40:15.334Z,1.50
2018-08-12T14:42:44.413Z,1.43
2018-08-12T14:45:13.885Z,1.17
2018-08-12T14:47:42.901Z,1.33
2018-08-12T14:50:13.229Z,1.40
2018-08-12T14:52:42.129Z,1.10
2018-08-12T14:55:11.729Z,1.33
2018-08-12T14:57:40.962Z,1.27
2018-08-12T15:00:12.308Z,0.90
2018-08-12T15:02:40.960Z,1.03
2018-08-12T15:05:09.699Z,1.03
2018-08-12T15:07:38.466Z,1.27
2018-08-12T15:10:08.937Z,1.20
2018-08-12T15:12:37.745Z,1.30
2018-08-12T15:15:07.719Z,1.20
2018-08-12T15:17:36.407Z,1.37
2018-08-12T15:20:05.527Z,1.20
2018-08-12T15:22:34.241Z,0.90
2018-08-12T15:25:02.975Z,1.20
2018-08-12T15:27:31.666Z,1.30
2018-08-12T15:30:00.278Z,3.73
2018-08-12T15:32:29.111Z,4.60
2018-08-12T15:34:57.806Z,1.60
2018-08-12T15:37:26.442Z,1.67
2018-08-12T15:39:55.134Z,1.30
2018-08-12T15:42:23.860Z,1.40
2018-08-12T15:44:52.593Z,1.47
2018-08-12T15:47:21.233Z,1.37
2018-08-12T15:49:49.984Z,1.20
2018-08-12T15:52:18.625Z,1.03
2018-08-12T15:54:48.427Z,1.40
2018-08-12T15:57:17.073Z,1.50
2018-08-12T15:59:45.900Z,1.50
2018-08-12T16:02:14.595Z,1.47
2018-08-12T16:04:43.293Z,1.30
2018-08-12T16:07:11.945Z,1.40
2018-08-12T16:09:40.632Z,1.33
2018-08-12T16:12:09.779Z,1.50
2018-08-12T16:14:38.573Z,3.00
2018-08-12T16:17:07.447Z,1.60
2018-08-12T16:19:36.099Z,1.27
2018-08-12T16:22:04.862Z,2.33
2018-08-12T16:24:33.629Z,1.80
2018-08-12T16:27:02.293Z,1.10
2018-08-12T16:29:30.951Z,1.97
2018-08-12T16:31:59.606Z,1.57
2018-08-12T16:34:28.313Z,1.20
2018-08-12T16:36:56.974Z,1.30
2018-08-12T16:39:25.661Z,1.30
2018-08-12T16:41:54.435Z,1.83
2018-08-12T16:44:23.159Z,1.43
2018-08-12T16:46:51.865Z,1.13
2018-08-12T16:49:20.727Z,1.10
2018-08-12T16:51:49.369Z,2.23
2018-08-12T16:54:18.026Z,1.13
2018-08-12T16:56:46.810Z,1.07
2018-08-12T16:59:15.424Z,1.40
2018-08-12T17:01:44.136Z,1.50
2018-08-12T17:04:12.910Z,1.60
2018-08-12T17:06:41.565Z,1.80
2018-08-12T17:09:11.621Z,1.50
2018-08-12T17:11:40.313Z,1.30
2018-08-12T17:14:09.438Z,1.70
2018-08-12T17:16:38.122Z,1.40
2018-08-12T17:19:06.834Z,1.00
2018-08-12T17:21:35.488Z,1.50
2018-08-12T17:24:04.115Z,1.60
2018-08-12T17:26:32.829Z,1.37
2018-08-12T17:29:01.565Z,1.10
2018-08-12T17:31:30.237Z,1.30
2018-08-12T17:33:58.978Z,1.40
2018-08-12T17:36:27.636Z,1.80
2018-08-12T17:38:56.326Z,2.00
2018-08-12T17:41:25.005Z,1.83
2018-08-12T17:43:53.713Z,1.40
2018-08-12T17:46:22.407Z,1.40
2018-08-12T17:48:51.213Z,1.27
2018-08-12T17:51:19.927Z,1.10
2018-08-12T17:53:48.596Z,1.30
2018-08-12T17:56:17.674Z,1.50
2018-08-12T17:58:46.349Z,1.40
2018-08-12T18:01:15.017Z,2.80
2018-08-12T18:03:43.683Z,2.03
2018-08-12T18:06:12.323Z,1.90
2018-08-12T18:08:41.032Z,2.33
2018-08-12T18:11:09.706Z,1.77
2018-08-12T18:13:38.393Z,2.17
2018-08-12T18:16:07.052Z,1.73
2018-08-12T18:18:35.734Z,1.90
2018-08-12T18:21:04.446Z,1.97
2018-08-12T18:23:34.031Z,2.07
2018-08-12T18:26:03.918Z,1.77
2018-08-12T18:28:32.765Z,1.63
2018-08-12T18:31:01.551Z,2.40
2018-08-12T18:33:30.317Z,1.73
2018-08-12T18:36:03.405Z,1.80
2018-08-12T18:38:32.112Z,1.90
2018-08-12T18:41:00.833Z,2.17
2018-08-12T18:43:29.551Z,2.63
2018-08-12T18:45:58.214Z,2.60
2018-08-12T18:48:26.905Z,2.67
2018-08-12T18:50:55.584Z,2.90
2018-08-12T18:59:11.583Z,2.53
2018-08-12T19:01:40.612Z,2.20
2018-08-12T19:04:09.305Z,2.33
2018-08-12T19:06:37.986Z,2.20
2018-08-12T19:09:09.519Z,2.00
2018-08-12T19:11:39.111Z,2.10
2018-08-12T19:14:08.237Z,2.30
2018-08-12T19:16:37.066Z,2.00
2018-08-12T19:19:05.894Z,1.90
2018-08-12T19:21:34.578Z,2.60
2018-08-12T19:24:03.834Z,2.80
2018-08-12T19:26:32.513Z,3.07
2018-08-12T19:29:01.641Z,2.27
2018-08-12T19:31:30.250Z,2.00
2018-08-12T19:33:58.945Z,2.40
2018-08-12T19:36:27.586Z,2.43
2018-08-12T19:38:56.406Z,2.40
2018-08-12T19:41:25.335Z,2.40
2018-08-12T19:43:53.913Z,2.80
2018-08-12T19:46:22.533Z,2.70
2018-08-12T19:48:51.201Z,2.40
2018-08-12T19:51:19.990Z,2.63
2018-08-12T19:53:48.654Z,2.50
2018-08-12T19:56:17.305Z,3.10
2018-08-12T19:58:45.938Z,2.97
2018-08-12T20:01:14.606Z,2.80
2018-08-12T20:03:43.230Z,3.37
2018-08-12T20:06:11.855Z,2.57
2018-08-12T20:08:40.542Z,3.00
2018-08-12T20:11:09.197Z,3.43
2018-08-12T20:13:37.950Z,3.10
2018-08-12T20:16:06.654Z,3.50
2018-08-12T20:18:35.376Z,3.60
2018-08-12T20:21:03.966Z,3.20
2018-08-12T20:23:32.630Z,3.33
2018-08-12T20:26:01.609Z,3.57
2018-08-12T20:28:30.427Z,3.40
2018-08-12T20:30:59.092Z,3.50
2018-08-12T20:33:28.111Z,3.20
2018-08-12T20:35:56.793Z,3.33
2018-08-12T20:38:25.508Z,3.23
2018-08-12T20:40:54.193Z,3.50
2018-08-12T20:43:22.901Z,3.40
2018-08-12T20:45:51.696Z,3.67
2018-08-12T20:48:20.392Z,3.10
2018-08-12T20:50:49.032Z,3.63
2018-08-12T20:53:17.685Z,3.33
2018-08-12T20:55:46.339Z,3.40
2018-08-12T20:58:14.994Z,3.20
2018-08-12T21:00:43.650Z,3.57
2018-08-12T21:03:12.284Z,3.57
2018-08-12T21:05:40.966Z,3.33
2018-08-12T21:08:09.617Z,3.63
2018-08-12T21:10:38.309Z,3.00
2018-08-12T21:13:06.998Z,3.20
2018-08-12T21:15:35.625Z,3.50
2018-08-12T21:18:04.334Z,3.77
2018-08-12T21:20:32.961Z,3.73
2018-08-12T21:23:01.901Z,3.47
2018-08-12T21:25:30.841Z,3.03
2018-08-12T21:27:59.472Z,3.40
2018-08-12T21:30:28.130Z,3.13
2018-08-12T21:32:56.762Z,3.17
2018-08-12T21:35:25.642Z,3.00
2018-08-12T21:37:54.290Z,3.00
2018-08-12T21:40:22.946Z,3.47
2018-08-12T21:42:51.670Z,3.43
2018-08-12T21:45:20.363Z,3.50
2018-08-12T21:47:49.033Z,3.70
2018-08-12T21:50:17.659Z,3.50
2018-08-12T21:52:46.366Z,3.30
2018-08-12T21:55:14.985Z,3.10
2018-08-12T21:57:43.645Z,3.20
2018-08-12T22:00:14.723Z,3.63
2018-08-12T22:02:44.493Z,3.37
2018-08-12T22:05:13.294Z,3.27
2018-08-12T22:07:41.917Z,3.43
2018-08-12T22:10:10.569Z,3.53
2018-08-12T22:12:39.233Z,3.27
2018-08-12T22:15:08.582Z,3.97
2018-08-12T22:17:37.859Z,3.70
2018-08-12T22:20:06.653Z,3.60
2018-08-12T22:22:35.314Z,2.97
2018-08-12T22:25:10.622Z,3.80
2018-08-12T22:27:39.227Z,3.20
2018-08-12T22:30:11.424Z,3.20
2018-08-12T22:32:40.068Z,3.43
2018-08-12T22:35:08.758Z,2.97
2018-08-12T22:37:37.433Z,2.93
2018-08-12T22:40:06.454Z,3.23
2018-08-12T22:42:35.240Z,3.20
2018-08-12T22:45:04.542Z,3.30
2018-08-12T22:47:33.209Z,3.20
2018-08-12T22:50:02.610Z,3.00
2018-08-12T22:52:31.240Z,3.40
2018-08-12T22:54:59.882Z,3.50
2018-08-12T22:57:28.509Z,3.37
2018-08-12T22:59:57.149Z,3.97
2018-08-12T23:02:25.845Z,3.53
2018-08-12T23:04:54.492Z,3.40
2018-08-12T23:07:23.487Z,3.43
2018-08-12T23:09:52.197Z,3.70
2018-08-12T23:12:20.816Z,3.30
2018-08-12T23:14:49.490Z,3.50
2018-08-12T23:17:18.179Z,3.60
2018-08-12T23:19:46.820Z,3.80
2018-08-12T23:22:15.538Z,3.70
2018-08-12T23:24:44.169Z,3.63
2018-08-12T23:27:12.773Z,3.30
2018-08-12T23:29:41.402Z,3.73
2018-08-12T23:32:10.042Z,3.07
2018-08-12T23:34:38.701Z,3.30
2018-08-12T23:37:07.396Z,3.50
2018-08-12T23:39:36.082Z,3.50
2018-08-12T23:42:04.761Z,3.30
2018-08-12T23:44:33.367Z,3.80
2018-08-12T23:47:02.069Z,3.97
2018-08-12T23:49:30.743Z,3.20
2018-08-12T23:51:59.349Z,3.60
2018-08-12T23:54:28.023Z,3.03
2018-08-12T23:56:56.672Z,2.97
2018-08-12T23:59:25.325Z,3.27
